Time;durP1;ratioP1;P1;durP2;ratioP2;P2;SDS_P1;SDS_P2;PMS_P1;PMS_P2;Temp;Humidity;BMP_temperature;BMP_pressure;BME280_temperature;BME280_humidity;BME280_pressure;Samples;Min_cycle;Max_cycle;Signal;HPM_P1;HPM_P2
2022/12/27 00:02:19;;;;;;;10.20;2.87;;;;;;;5.20;79.24;100685.22;1791979;78;21039;-92
2022/12/27 00:04:46;;;;;;;8.23;3.60;;;;;;;5.13;79.12;100688.41;1796218;77;22556;-92
2022/12/27 00:07:12;;;;;;;10.65;2.52;;;;;;;5.04;79.07;100675.40;1794952;78;21027;-93
2022/12/27 00:09:39;;;;;;;9.83;2.42;;;;;;;4.95;79.04;100680.61;1789756;79;20959;-92
2022/12/27 00:12:06;;;;;;;9.28;3.70;;;;;;;4.92;79.10;100686.97;1791007;78;21065;-92
2022/12/27 00:14:33;;;;;;;36.05;18.27;;;;;;;4.86;79.08;100685.89;1793210;78;21030;-93
2022/12/27 00:16:59;;;;;;;50.50;26.07;;;;;;;4.80;79.04;100693.83;1794348;78;22493;-93
2022/12/27 00:19:26;;;;;;;24.12;12.55;;;;;;;4.73;79.07;100696.57;1795179;78;20976;-93
2022/12/27 00:21:53;;;;;;;53.60;32.20;;;;;;;4.67;79.09;100710.59;1792098;78;21010;-93
2022/12/27 00:24:20;;;;;;;22.67;12.78;;;;;;;4.60;79.12;100718.97;1790085;78;20999;-92
2022/12/27 00:26:46;;;;;;;54.25;32.45;;;;;;;4.54;79.17;100716.04;1783478;79;21077;-92
2022/12/27 00:29:13;;;;;;;104.30;64.85;;;;;;;4.47;79.28;100722.27;1790775;78;21961;-93
2022/12/27 00:31:40;;;;;;;64.40;39.75;;;;;;;4.44;79.37;100736.85;1796656;79;20998;-93
2022/12/27 00:34:07;;;;;;;51.53;28.40;;;;;;;4.39;79.42;100750.97;1756660;81;21521;-93
2022/12/27 00:36:34;;;;;;;52.62;30.43;;;;;;;4.34;79.48;100759.37;1723637;82;20983;-92
2022/12/27 00:39:00;;;;;;;68.87;40.70;;;;;;;4.31;79.59;100754.00;1754982;81;21014;-92
2022/12/27 00:41:27;;;;;;;34.58;18.57;;;;;;;4.26;79.64;100769.00;1763545;79;21731;-93
2022/12/27 00:43:54;;;;;;;45.10;26.07;;;;;;;4.24;79.73;100772.33;1760536;79;21335;-93
2022/12/27 00:46:21;;;;;;;34.40;15.53;;;;;;;4.21;79.79;100766.56;1761210;80;21043;-93
2022/12/27 00:48:48;;;;;;;33.78;16.77;;;;;;;4.21;79.89;100773.50;1761314;80;20968;-92
2022/12/27 00:51:22;;;;;;;56.10;28.60;;;;;;;4.20;79.93;100781.70;1717796;82;21070;-93
2022/12/27 00:53:49;;;;;;;21.95;10.80;;;;;;;4.22;79.98;100782.70;1760094;79;21814;-93
2022/12/27 00:56:21;;;;;;;23.02;10.13;;;;;;;4.22;80.04;100787.91;1757094;80;20999;-92
2022/12/27 00:58:58;;;;;;;18.62;9.98;;;;;;;4.23;80.13;100784.47;1756815;79;21626;-91
2022/12/27 01:01:26;;;;;;;18.52;9.23;;;;;;;4.29;80.19;100785.19;1757490;79;20998;-92
2022/12/27 01:03:53;;;;;;;16.73;6.33;;;;;;;4.29;80.06;100776.95;1759393;80;21022;-93
2022/12/27 01:06:23;;;;;;;18.73;5.10;;;;;;;4.29;80.02;100779.98;1761464;80;22470;-93
2022/12/27 01:08:50;;;;;;;12.80;3.52;;;;;;;4.30;80.03;100779.17;1764519;80;21007;-93
2022/12/27 01:11:17;;;;;;;16.27;4.17;;;;;;;4.32;79.99;100776.62;1722727;83;21627;-93
2022/12/27 01:13:44;;;;;;;14.45;3.62;;;;;;;4.29;79.93;100776.07;1797013;79;21539;-92
2022/12/27 01:16:19;;;;;;;16.42;3.60;;;;;;;4.26;79.90;100778.51;1752206;81;21047;-92
2022/12/27 01:18:46;;;;;;;17.25;3.85;;;;;;;4.20;79.82;100786.91;1798035;78;21721;-92
2022/12/27 01:21:15;;;;;;;11.00;3.25;;;;;;;4.16;79.81;100795.80;1796978;79;20957;-92
2022/12/27 01:23:42;;;;;;;13.10;3.37;;;;;;;4.09;79.79;100801.09;1802980;78;21456;-93
2022/12/27 01:26:15;;;;;;;13.18;3.02;;;;;;;4.02;79.76;100806.41;1798308;79;20998;-92
2022/12/27 01:28:41;;;;;;;13.72;3.17;;;;;;;3.96;79.87;100809.09;1795106;79;21540;-93
2022/12/27 01:31:11;;;;;;;9.18;3.10;;;;;;;3.97;80.14;100806.98;1799606;78;21741;-93
2022/12/27 01:33:38;;;;;;;14.07;2.98;;;;;;;4.05;80.39;100820.91;1800120;78;21545;-93
2022/12/27 01:36:14;;;;;;;13.25;3.67;;;;;;;4.14;80.43;100828.28;1802347;79;20991;-92
2022/12/27 01:38:46;;;;;;;12.60;3.40;;;;;;;4.18;80.29;100837.16;1801608;79;21330;-93
2022/12/27 01:44:48;;;;;;;14.90;3.47;;;;;;;4.15;80.17;100825.27;1768296;80;21725;-92
2022/12/27 01:47:34;;;;;;;15.88;3.92;;;;;;;4.22;80.28;100836.11;1796025;79;20991;-92
2022/12/27 01:50:35;;;;;;;17.10;3.40;;;;;;;4.25;80.26;100832.76;1796020;78;21008;-93
2022/12/27 01:53:13;;;;;;;14.83;3.27;;;;;;;4.31;80.25;100835.67;1797489;79;20971;-92
2022/12/27 01:56:04;;;;;;;20.92;3.55;;;;;;;4.32;80.24;100832.64;1796310;78;21802;-93
2022/12/27 01:58:34;;;;;;;21.48;3.72;;;;;;;4.37;80.19;100849.42;1799113;78;21707;-93
2022/12/27 02:01:03;;;;;;;13.60;3.85;;;;;;;4.45;80.26;100845.52;1801511;78;21576;-93
2022/12/27 02:03:38;;;;;;;16.17;3.33;;;;;;;4.49;80.04;100844.85;1799523;78;21013;-92
2022/12/27 02:06:06;;;;;;;14.43;2.87;;;;;;;4.51;80.02;100843.63;1805496;78;21520;-92
2022/12/27 02:08:48;;;;;;;17.75;3.47;;;;;;;4.56;80.05;100835.61;1804897;77;20983;-92
2022/12/27 02:11:15;;;;;;;13.50;3.33;;;;;;;4.63;80.01;100832.50;1801397;78;22250;-93
2022/12/27 02:13:44;;;;;;;16.25;3.08;;;;;;;4.73;79.97;100845.20;1800373;77;21523;-92
2022/12/27 02:16:15;;;;;;;18.75;3.70;;;;;;;4.79;79.90;100842.89;1809164;78;21406;-92
2022/12/27 02:18:42;;;;;;;18.05;3.87;;;;;;;4.86;79.80;100846.67;1807754;77;21445;-92
2022/12/27 02:21:37;;;;;;;24.18;4.10;;;;;;;4.93;79.75;100843.55;1805904;77;21371;-93
2022/12/27 02:24:34;;;;;;;18.42;3.35;;;;;;;4.99;79.62;100846.48;1804202;77;21731;-92
2022/12/27 02:27:11;;;;;;;22.35;3.87;;;;;;;5.06;79.44;100858.10;1806291;78;20978;-92
2022/12/27 02:30:05;;;;;;;20.40;4.20;;;;;;;5.11;79.35;100852.70;1811624;77;20962;-92
2022/12/27 02:32:35;;;;;;;;;;;;;;;5.17;79.27;100848.20;1803343;77;21089;-93
2022/12/27 02:35:33;;;;;;;19.05;3.27;;;;;;;5.19;79.13;100852.66;1807473;78;20164;-92
2022/12/27 02:38:31;;;;;;;15.35;2.98;;;;;;;5.20;78.95;100845.33;1800658;78;22201;-92
2022/12/27 02:53:03;;;;;;;15.03;3.27;;;;;;;5.10;78.32;100860.45;1810095;77;22891;-93
2022/12/27 02:59:16;;;;;;;16.50;3.35;;;;;;;5.11;78.39;100866.17;1758293;78;21014;-93
2022/12/27 03:05:21;;;;;;;20.25;2.70;;;;;;;5.09;78.36;100879.52;1799595;78;21455;-92
2022/12/27 03:08:11;;;;;;;15.53;2.77;;;;;;;5.11;78.34;100889.23;1716044;81;21773;-93
2022/12/27 03:16:57;;;;;;;13.03;3.40;;;;;;;5.17;78.22;100889.53;1758730;81;20980;-93
2022/12/27 03:33:11;;;;;;;19.10;3.22;;;;;;;5.23;77.95;100900.67;1783905;78;21026;-91
2022/12/27 03:33:12;;;;;;;21.90;3.85;;;;;;;5.29;77.92;100894.86;1779874;79;21518;-92
2022/12/27 03:38:01;;;;;;;21.85;4.15;;;;;;;5.30;77.90;100901.88;1781848;80;21703;-92
2022/12/27 03:38:13;;;;;;;21.20;3.50;;;;;;;5.28;77.82;100908.75;1774393;78;21445;-93
2022/12/27 03:43:39;;;;;;;14.87;3.33;;;;;;;5.32;77.83;100910.68;1780605;80;20987;-93
2022/12/27 03:46:35;;;;;;;13.85;3.20;;;;;;;5.31;77.71;100911.48;1780163;78;20993;-93
2022/12/27 03:49:29;;;;;;;16.07;3.08;;;;;;;5.32;77.67;100910.68;1779813;80;21818;-93
2022/12/27 03:52:19;;;;;;;15.25;3.27;;;;;;;5.35;77.68;100919.56;1781105;80;21980;-92
2022/12/27 03:54:47;;;;;;;15.32;3.87;;;;;;;5.37;77.68;100918.33;1782777;78;21431;-93
2022/12/27 03:57:16;;;;;;;26.75;3.55;;;;;;;5.38;77.62;100915.77;1783036;80;21030;-93
2022/12/27 03:59:43;;;;;;;16.02;3.50;;;;;;;5.38;77.61;100917.08;1772955;80;20992;-92
2022/12/27 04:02:09;;;;;;;17.32;3.42;;;;;;;5.34;77.42;100912.53;1781376;78;22339;-93
2022/12/27 04:04:36;;;;;;;21.33;3.77;;;;;;;5.25;77.27;100910.39;1780893;78;21116;-92
2022/12/27 04:07:03;;;;;;;16.20;3.52;;;;;;;5.17;77.24;100910.41;1790848;78;21014;-93
2022/12/27 04:37:01;;;;;;;15.13;3.40;;;;;;;4.75;77.74;100935.22;1799067;79;21451;-93
2022/12/27 04:39:28;;;;;;;17.92;3.52;;;;;;;4.70;77.59;100941.92;1799039;79;21003;-93
2022/12/27 04:56:03;;;;;;;14.40;4.33;;;;;;;4.35;77.74;100964.42;1762874;80;22379;-92
2022/12/27 04:58:30;;;;;;;19.32;4.03;;;;;;;4.34;77.91;100960.93;1767608;80;21311;-92
2022/12/27 05:03:43;;;;;;;14.23;3.85;;;;;;;4.38;78.12;100969.39;1721821;82;21030;-92
2022/12/27 05:06:10;;;;;;;15.25;3.80;;;;;;;4.43;78.20;100970.92;1801147;78;21069;-93
2022/12/27 05:14:10;;;;;;;17.48;3.50;;;;;;;4.53;78.22;100960.19;1800031;77;21034;-92
2022/12/27 05:16:39;;;;;;;14.85;3.65;;;;;;;4.55;78.19;100953.34;1809881;77;20988;-91
2022/12/27 05:19:06;;;;;;;19.60;3.70;;;;;;;4.56;78.10;100974.70;1808852;78;21367;-92
2022/12/27 05:21:38;;;;;;;18.80;3.67;;;;;;;4.57;78.02;100969.06;1801868;78;22209;-91
2022/12/27 05:26:50;;;;;;;14.13;4.25;;;;;;;4.47;77.80;100985.52;1794307;77;20971;-91
2022/12/27 05:29:17;;;;;;;15.78;3.52;;;;;;;4.41;77.80;100982.59;1801059;77;21042;-91
2022/12/27 05:31:44;;;;;;;15.35;3.27;;;;;;;4.35;77.74;100982.25;1797082;78;21041;-91
2022/12/27 05:34:10;;;;;;;12.58;2.90;;;;;;;4.31;77.85;100992.02;1807070;77;21714;-91
2022/12/27 05:36:37;;;;;;;13.80;3.67;;;;;;;4.30;77.97;100995.46;1811936;77;20963;-92
2022/12/27 05:39:03;;;;;;;14.40;3.30;;;;;;;4.32;78.11;100998.12;1809803;77;21015;-92
2022/12/27 05:41:30;;;;;;;12.53;2.85;;;;;;;4.34;78.26;101004.34;1807231;77;21061;-85
2022/12/27 05:43:57;;;;;;;17.87;3.58;;;;;;;4.38;78.31;101008.48;1805375;77;21034;-85
2022/12/27 05:46:24;;;;;;;13.80;3.30;;;;;;;4.41;78.35;101002.53;1793836;78;22357;-85
2022/12/27 05:48:51;;;;;;;16.10;3.42;;;;;;;4.43;78.39;101008.72;1801015;77;20984;-92
2022/12/27 05:51:20;;;;;;;16.10;3.72;;;;;;;4.45;78.45;100997.58;1802034;77;20990;-92
2022/12/27 05:53:48;;;;;;;18.15;3.05;;;;;;;4.48;78.34;100993.81;1794789;79;21112;-92
2022/12/27 05:56:17;;;;;;;12.82;3.00;;;;;;;4.50;78.24;101007.35;1799426;79;20985;-92
2022/12/27 05:58:44;;;;;;;16.40;3.50;;;;;;;4.50;78.25;101004.33;1809421;77;21724;-92
2022/12/27 06:01:14;;;;;;;13.85;3.17;;;;;;;4.54;78.30;101011.91;1809322;77;21038;-92
2022/12/27 06:03:41;;;;;;;12.90;3.12;;;;;;;4.58;78.33;101016.08;1804284;77;21023;-92
2022/12/27 06:06:08;;;;;;;19.12;3.10;;;;;;;4.60;78.24;101004.02;1803897;78;21052;-92
2022/12/27 06:08:34;;;;;;;18.23;3.60;;;;;;;4.63;78.24;101014.59;1800924;77;21070;-91
2022/12/27 06:11:09;;;;;;;13.38;3.08;;;;;;;4.62;78.12;101008.91;1810445;78;22452;-91
2022/12/27 06:13:36;;;;;;;11.43;2.60;;;;;;;4.59;77.99;101010.03;1796544;79;21001;-91
2022/12/27 06:16:03;;;;;;;15.95;3.30;;;;;;;4.56;77.92;101008.97;1798141;78;21007;-90
2022/12/27 06:18:31;;;;;;;16.07;2.65;;;;;;;4.53;77.87;101015.34;1802840;78;21014;-92
2022/12/27 06:21:04;;;;;;;10.00;2.87;;;;;;;4.53;77.85;101018.84;1801447;79;20998;-91
2022/12/27 06:23:35;;;;;;;10.15;2.92;;;;;;;4.58;77.84;101015.16;1805804;78;21733;-91
2022/12/27 06:26:07;;;;;;;10.60;2.75;;;;;;;4.56;77.98;101003.76;1712435;80;20971;-92
2022/12/27 06:28:34;;;;;;;15.70;3.12;;;;;;;4.58;77.70;101010.87;1733135;80;20969;-92
2022/12/27 06:31:01;;;;;;;9.75;2.72;;;;;;;4.64;77.66;101018.12;1767037;80;21066;-92
2022/12/27 06:33:27;;;;;;;13.85;3.75;;;;;;;4.69;77.65;101023.15;1770202;80;20931;-91
2022/12/27 06:35:54;;;;;;;15.98;4.10;;;;;;;4.75;77.62;101033.00;1768151;79;22653;-92
2022/12/27 06:38:21;;;;;;;14.07;4.17;;;;;;;4.79;77.56;101043.70;1771144;79;21880;-92
2022/12/27 06:40:47;;;;;;;17.02;4.83;;;;;;;4.81;77.46;101038.56;1772899;80;20987;-92
2022/12/27 06:43:14;;;;;;;15.75;3.37;;;;;;;4.83;77.48;101046.95;1773439;80;21595;-91
2022/12/27 06:45:41;;;;;;;17.87;3.40;;;;;;;4.84;77.38;101049.14;1744617;81;20998;-92
2022/12/27 06:48:08;;;;;;;11.00;2.87;;;;;;;4.87;77.41;101058.03;1773525;80;21810;-92
2022/12/27 06:50:35;;;;;;;12.18;3.20;;;;;;;4.91;77.33;101061.70;1769046;80;21851;-92
2022/12/27 06:53:02;;;;;;;16.95;3.20;;;;;;;4.94;77.34;101060.98;1734140;81;21094;-92
2022/12/27 06:55:29;;;;;;;12.75;2.45;;;;;;;4.98;77.27;101070.76;1770797;79;21530;-92
2022/12/27 06:57:56;;;;;;;14.03;3.37;;;;;;;5.01;77.19;101070.89;1764961;79;21049;-91
2022/12/27 07:00:22;;;;;;;13.43;3.00;;;;;;;5.03;77.09;101067.95;1771761;79;22219;-91
2022/12/27 07:02:49;;;;;;;13.43;3.10;;;;;;;5.05;77.04;101076.38;1731059;80;21123;-91
2022/12/27 07:05:16;;;;;;;12.23;3.40;;;;;;;5.02;76.99;101068.38;1757435;80;21436;-92
2022/12/27 07:07:43;;;;;;;16.80;3.55;;;;;;;5.09;76.89;101081.73;1732117;81;21059;-92
2022/12/27 07:10:10;;;;;;;14.33;3.45;;;;;;;5.10;76.87;101072.69;1755643;80;21033;-91
2022/12/27 07:12:37;;;;;;;13.05;3.50;;;;;;;5.11;76.74;101082.74;1735602;82;21776;-92
2022/12/27 07:15:05;;;;;;;9.93;3.12;;;;;;;5.12;76.70;101084.52;1752617;80;21097;-91
2022/12/27 07:17:34;;;;;;;12.50;2.98;;;;;;;5.09;76.66;101085.27;1753621;79;21254;-92
2022/12/27 07:20:06;;;;;;;11.85;2.62;;;;;;;5.10;76.72;101083.54;1787593;77;21492;-91
2022/12/27 07:22:33;;;;;;;12.73;3.22;;;;;;;5.01;76.63;101070.52;1793478;78;20966;-90
2022/12/27 07:25:00;;;;;;;16.17;3.40;;;;;;;5.12;76.60;101082.80;1789749;78;21751;-91
2022/12/27 07:27:26;;;;;;;12.93;3.37;;;;;;;5.17;76.61;101097.41;1794463;79;21117;-91
2022/12/27 07:29:53;;;;;;;15.55;3.10;;;;;;;5.18;76.57;101101.78;1791581;78;22330;-93
2022/12/27 07:32:20;;;;;;;13.13;3.77;;;;;;;5.18;76.53;101098.80;1794900;78;21069;-91
2022/12/27 07:34:47;;;;;;;12.33;2.75;;;;;;;5.19;76.49;101102.29;1802372;78;21108;-91
2022/12/27 07:37:14;;;;;;;14.53;3.62;;;;;;;5.17;76.48;101102.63;1785823;78;21695;-91
2022/12/27 07:39:40;;;;;;;12.07;3.00;;;;;;;5.04;76.52;101085.42;1775849;78;21069;-92
2022/12/27 07:42:07;;;;;;;15.43;3.37;;;;;;;5.15;76.56;101103.84;1788967;78;21030;-91
2022/12/27 07:44:34;;;;;;;12.58;3.17;;;;;;;5.17;76.54;101104.81;1796027;78;21035;-91
2022/12/27 07:47:00;;;;;;;12.82;2.80;;;;;;;5.17;76.50;101110.03;1795095;79;21032;-91
2022/12/27 07:49:27;;;;;;;18.32;4.03;;;;;;;5.20;76.46;101113.20;1790155;78;21726;-91
2022/12/27 07:51:54;;;;;;;13.80;2.98;;;;;;;5.22;76.45;101119.42;1786116;78;21588;-91
2022/12/27 07:54:21;;;;;;;12.35;3.20;;;;;;;5.23;76.34;101121.20;1785588;79;21018;-91
2022/12/27 07:56:48;;;;;;;18.67;3.27;;;;;;;5.23;76.33;101119.48;1792047;79;21825;-92
2022/12/27 07:59:15;;;;;;;17.23;2.83;;;;;;;5.26;76.27;101119.66;1790928;79;20975;-92
2022/12/27 08:02:02;;;;;;;16.12;3.22;;;;;;;5.27;76.16;101124.45;1765996;78;22241;-92
2022/12/27 08:04:10;;;;;;;17.17;3.42;;;;;;;5.28;76.11;101117.12;1787183;78;21009;-92
2022/12/27 08:06:36;;;;;;;15.03;2.90;;;;;;;5.29;76.12;101118.91;1795160;78;20978;-92
2022/12/27 08:09:04;;;;;;;14.15;2.92;;;;;;;5.29;76.08;101103.66;1761681;80;21053;-92
2022/12/27 08:11:31;;;;;;;10.95;3.05;;;;;;;5.35;76.01;101114.02;1796194;79;21403;-92
2022/12/27 08:13:58;;;;;;;10.75;2.60;;;;;;;5.36;75.98;101109.27;1795760;78;21789;-92
2022/12/27 08:16:25;;;;;;;13.43;2.80;;;;;;;5.39;75.88;101111.17;1794553;78;21132;-92
2022/12/27 08:18:54;;;;;;;16.25;3.55;;;;;;;5.39;75.87;101117.27;1798327;78;20974;-92
2022/12/27 08:21:22;;;;;;;12.78;3.15;;;;;;;5.45;75.90;101122.80;1799085;79;21250;-92
2022/12/27 08:23:49;;;;;;;15.38;3.05;;;;;;;5.47;75.70;101124.61;1798185;78;21080;-92
2022/12/27 08:26:16;;;;;;;13.50;2.50;;;;;;;5.45;75.59;101129.33;1797497;79;21768;-92
2022/12/27 08:28:43;;;;;;;12.55;2.70;;;;;;;5.46;75.53;101126.30;1797452;79;21029;-91
2022/12/27 08:31:11;;;;;;;13.00;2.77;;;;;;;5.45;75.50;101115.39;1799209;78;20999;-92
2022/12/27 08:33:40;;;;;;;7.87;2.70;;;;;;;5.47;75.54;101116.36;1796822;78;20966;-92
2022/12/27 08:36:08;;;;;;;15.05;2.87;;;;;;;5.51;75.57;101120.92;1795340;79;21037;-91
2022/12/27 08:38:35;;;;;;;11.22;2.80;;;;;;;5.44;75.50;101106.67;1798263;78;21786;-91
2022/12/27 08:41:02;;;;;;;11.25;3.50;;;;;;;5.51;75.44;101110.47;1795878;79;20992;-92
2022/12/27 08:43:29;;;;;;;8.03;2.80;;;;;;;5.48;75.40;101122.09;1794880;78;20991;-92
2022/12/27 08:46:01;;;;;;;10.10;3.10;;;;;;;5.48;75.38;101122.09;1799273;78;21507;-92
2022/12/27 08:48:30;;;;;;;11.18;4.58;;;;;;;5.50;75.47;101119.53;1797585;78;21455;-92
2022/12/27 08:50:56;;;;;;;15.35;5.35;;;;;;;5.51;75.26;101129.17;1797154;79;21747;-92
2022/12/27 08:53:23;;;;;;;12.68;7.03;;;;;;;5.51;75.24;101123.53;1798754;78;20963;-92
2022/12/27 08:55:50;;;;;;;25.20;12.03;;;;;;;5.56;75.32;101129.00;1798374;79;20958;-92
2022/12/27 08:58:17;;;;;;;27.20;16.48;;;;;;;5.61;75.30;101127.12;1796817;78;21471;-92
2022/12/27 09:00:43;;;;;;;22.45;15.90;;;;;;;5.66;75.17;101133.86;1762598;81;20967;-91
2022/12/27 09:03:10;;;;;;;35.03;24.72;;;;;;;5.70;75.16;101129.70;1771270;79;21771;-92
2022/12/27 09:05:37;;;;;;;48.30;33.58;;;;;;;5.74;75.06;101131.64;1769681;80;21593;-92
2022/12/27 09:08:04;;;;;;;64.20;55.48;;;;;;;5.71;74.86;101135.00;1772035;79;21006;-92
2022/12/27 09:10:31;;;;;;;35.25;26.62;;;;;;;5.70;74.87;101131.00;1766666;80;20977;-92
2022/12/27 09:12:57;;;;;;;49.13;36.68;;;;;;;5.68;74.78;101127.00;1764392;80;21451;-92
2022/12/27 09:15:24;;;;;;;22.37;14.00;;;;;;;5.63;74.72;101119.33;1768371;79;21659;-92
2022/12/27 09:17:51;;;;;;;19.62;10.05;;;;;;;5.70;74.68;101127.97;1766488;80;21035;-92
2022/12/27 09:20:18;;;;;;;22.30;13.15;;;;;;;5.73;74.56;101129.86;1769802;79;20958;-92
2022/12/27 09:22:45;;;;;;;17.55;10.18;;;;;;;5.71;74.42;101128.47;1766595;80;21019;-92
2022/12/27 09:25:11;;;;;;;18.52;9.03;;;;;;;5.71;74.40;101131.50;1768078;79;21006;-92
2022/12/27 09:27:38;;;;;;;15.80;9.08;;;;;;;5.71;74.25;101138.92;1771730;79;22517;-92
2022/12/27 09:30:06;;;;;;;23.57;13.60;;;;;;;5.72;74.34;101141.11;1763401;80;20982;-92
2022/12/27 09:32:33;;;;;;;34.55;25.27;;;;;;;5.71;74.18;101138.92;1770457;80;20956;-92
2022/12/27 09:35:00;;;;;;;64.97;39.90;;;;;;;5.72;74.16;101140.70;1766273;79;21535;-92
2022/12/27 09:37:26;;;;;;;43.13;24.87;;;;;;;5.68;74.00;101140.06;1766981;80;21074;-92
2022/12/27 09:39:53;;;;;;;54.83;29.85;;;;;;;5.67;73.92;101146.50;1771790;80;21665;-92
2022/12/27 09:42:28;;;;;;;27.58;14.73;;;;;;;5.63;73.88;101143.76;1762840;80;20947;-91
2022/12/27 09:45:16;;;;;;;36.98;22.20;;;;;;;5.49;73.87;101114.72;1754767;80;21046;-93
2022/12/27 09:47:57;;;;;;;39.42;19.23;;;;;;;5.60;73.78;101133.56;1772561;79;21863;-92
2022/12/27 09:50:37;;;;;;;25.12;16.82;;;;;;;5.61;73.86;101134.03;1742713;81;21032;-92
2022/12/27 09:53:16;;;;;;;21.02;10.78;;;;;;;5.61;73.88;101128.42;1770493;79;21750;-92
2022/12/27 09:55:47;;;;;;;25.70;13.35;;;;;;;5.66;73.97;101131.25;1763384;80;21401;-92
2022/12/27 09:58:41;;;;;;;19.40;7.83;;;;;;;5.69;73.92;101141.87;1766804;80;20956;-91
2022/12/27 10:01:36;;;;;;;13.43;7.22;;;;;;;5.71;73.94;101144.14;1768109;80;21845;-92
2022/12/27 10:04:03;;;;;;;15.00;6.42;;;;;;;5.57;73.83;101122.95;1772977;79;21431;-92
2022/12/27 10:06:50;;;;;;;23.95;10.18;;;;;;;5.62;73.78;101149.78;1741778;80;21792;-90
2022/12/27 10:09:43;;;;;;;20.90;10.88;;;;;;;5.61;73.88;101150.62;1775118;79;20972;-91
2022/12/27 10:12:37;;;;;;;46.28;31.25;;;;;;;5.58;73.78;101140.00;1796889;79;20978;-90
2022/12/27 10:15:29;;;;;;;34.20;23.92;;;;;;;5.56;73.71;101140.34;1798698;79;21286;-91
2022/12/27 10:18:25;;;;;;;53.63;30.30;;;;;;;5.53;73.74;101141.47;1793918;79;21451;-92
2022/12/27 10:21:25;;;;;;;82.85;53.50;;;;;;;5.52;73.72;101150.14;1796786;78;21712;-91
2022/12/27 10:24:00;;;;;;;95.32;62.33;;;;;;;5.55;73.72;101143.75;1796172;78;20985;-92
2022/12/27 10:26:27;;;;;;;91.35;55.73;;;;;;;5.53;73.69;101147.11;1796148;79;21003;-91
2022/12/27 10:28:58;;;;;;;90.15;52.98;;;;;;;5.51;73.61;101151.36;1766497;79;21487;-92
2022/12/27 10:31:25;;;;;;;50.03;27.17;;;;;;;5.51;73.68;101153.97;1771070;79;20989;-92
2022/12/27 10:33:52;;;;;;;136.03;67.22;;;;;;;5.50;73.59;101157.39;1797473;78;21684;-92
2022/12/27 10:36:23;;;;;;;107.22;56.68;;;;;;;5.49;73.49;101154.30;1795478;78;21061;-91
2022/12/27 10:38:49;;;;;;;137.82;74.80;;;;;;;5.47;73.50;101159.44;1797434;78;20995;-92
2022/12/27 10:41:51;;;;;;;180.30;98.90;;;;;;;5.50;73.54;101154.78;1795584;79;21403;-92
2022/12/27 10:44:18;;;;;;;190.03;98.22;;;;;;;5.53;73.53;101156.25;1797053;78;20950;-92
2022/12/27 10:46:54;;;;;;;255.07;147.65;;;;;;;5.54;73.39;101152.42;1799545;78;21721;-91
2022/12/27 10:49:29;;;;;;;65.10;51.30;;;;;;;5.57;73.48;101153.86;1809330;78;21056;-92
2022/12/27 10:52:08;;;;;;;41.28;34.85;;;;;;;5.59;73.39;101161.40;1801243;78;21463;-92
2022/12/27 10:54:55;;;;;;;41.13;25.97;;;;;;;5.64;73.44;101158.59;1778160;78;21026;-92
2022/12/27 10:57:32;;;;;;;28.17;18.02;;;;;;;5.66;73.25;101152.14;1800194;78;21053;-91
2022/12/27 11:00:21;;;;;;;39.98;26.97;;;;;;;5.67;73.22;101152.65;1762187;80;22521;-92
2022/12/27 11:02:51;;;;;;;68.45;46.13;;;;;;;5.68;73.25;101158.76;1767723;80;21073;-91
2022/12/27 11:05:22;;;;;;;33.58;26.57;;;;;;;5.71;73.23;101161.54;1733480;82;21037;-91
2022/12/27 11:07:49;;;;;;;55.20;46.70;;;;;;;5.71;73.24;101169.37;1797087;79;21894;-91
2022/12/27 11:10:26;;;;;;;34.67;29.20;;;;;;;5.73;73.25;101174.27;1797411;78;21025;-91
2022/12/27 11:13:02;;;;;;;37.58;29.45;;;;;;;5.75;73.32;101171.32;1795919;79;22784;-92
2022/12/27 11:15:37;;;;;;;21.05;14.45;;;;;;;5.73;73.29;101174.27;1786193;79;20983;-92
2022/12/27 11:18:16;;;;;;;28.20;22.73;;;;;;;5.70;73.26;101180.62;1796797;79;21474;-91
2022/12/27 11:20:50;;;;;;;10.05;8.13;;;;;;;5.67;73.37;101176.16;1797866;79;21014;-91
2022/12/27 11:23:18;;;;;;;9.75;6.75;;;;;;;5.64;73.38;101176.88;1801886;79;20994;-92
2022/12/27 11:25:54;;;;;;;11.53;7.65;;;;;;;5.59;73.36;101183.59;1788603;79;21789;-92
2022/12/27 11:28:43;;;;;;;11.00;6.83;;;;;;;5.57;73.57;101189.12;1803823;79;21398;-92
2022/12/27 11:31:14;;;;;;;9.40;6.35;;;;;;;5.57;73.48;101182.59;1788089;79;21061;-91
2022/12/27 11:33:52;;;;;;;9.35;6.22;;;;;;;5.51;73.46;101183.58;1793653;79;20975;-92
2022/12/27 11:36:29;;;;;;;10.78;5.05;;;;;;;5.51;73.48;101181.39;1796194;77;21017;-91
2022/12/27 11:38:56;;;;;;;8.53;5.53;;;;;;;5.47;73.57;101184.66;1800136;77;21722;-92
2022/12/27 11:41:37;;;;;;;10.18;7.37;;;;;;;5.48;73.67;101178.61;1798704;77;20971;-92
2022/12/27 11:44:27;;;;;;;10.03;5.37;;;;;;;5.47;73.78;101181.63;1797527;77;21784;-91
2022/12/27 11:47:07;;;;;;;17.02;9.88;;;;;;;5.44;73.83;101182.38;1757888;79;20982;-91
2022/12/27 11:49:47;;;;;;;18.37;12.65;;;;;;;5.50;74.04;101176.97;1753758;79;20998;-91
2022/12/27 11:52:42;;;;;;;17.30;13.83;;;;;;;5.57;74.12;101174.75;1775799;79;21762;-92
2022/12/27 11:55:20;;;;;;;18.75;12.85;;;;;;;5.51;73.99;101167.91;1753890;79;21069;-92
2022/12/27 11:57:55;;;;;;;9.55;7.70;;;;;;;5.58;73.85;101171.34;1794708;79;21436;-91
2022/12/27 12:00:23;;;;;;;10.25;6.15;;;;;;;5.51;73.78;101173.14;1789037;79;20979;-92
2022/12/27 12:03:26;;;;;;;7.47;5.78;;;;;;;5.52;73.76;101186.70;1794128;79;21013;-92
2022/12/27 12:06:24;;;;;;;9.63;6.42;;;;;;;5.51;73.78;101178.36;1789674;79;22613;-91
2022/12/27 12:09:25;;;;;;;20.45;15.23;;;;;;;5.54;73.84;101182.45;1798157;79;20959;-92
2022/12/27 12:12:00;;;;;;;9.53;7.20;;;;;;;5.55;73.85;101182.92;1804071;79;20963;-92
2022/12/27 12:15:09;;;;;;;33.08;15.32;;;;;;;5.49;73.71;101183.91;1801033;79;21021;-91
2022/12/27 12:18:17;;;;;;;22.58;18.10;;;;;;;5.47;73.84;101192.08;1793625;79;21030;-93
2022/12/27 12:21:25;;;;;;;27.17;20.68;;;;;;;5.49;74.02;101175.20;1792676;79;21883;-92
2022/12/27 12:24:43;;;;;;;13.35;11.55;;;;;;;5.49;73.92;101176.08;1795925;79;21006;-93
2022/12/27 12:27:31;;;;;;;32.13;23.47;;;;;;;5.47;74.00;101190.77;1793100;79;21128;-93
2022/12/27 12:30:21;;;;;;;20.50;16.12;;;;;;;5.47;74.03;101185.55;1799002;79;21418;-93
2022/12/27 12:33:13;;;;;;;20.97;15.93;;;;;;;5.53;74.06;101183.67;1792768;79;21054;-93
2022/12/27 12:36:15;;;;;;;23.02;18.10;;;;;;;5.50;73.75;101176.97;1795128;79;22608;-92
2022/12/27 12:39:18;;;;;;;17.65;12.65;;;;;;;5.40;73.70;101183.02;1768311;79;20986;-93
2022/12/27 12:42:11;;;;;;;11.20;8.25;;;;;;;5.44;73.93;101186.68;1801040;79;20999;-93
2022/12/27 12:44:55;;;;;;;8.85;5.15;;;;;;;5.51;73.90;101188.80;1795855;78;21049;-93
2022/12/27 12:47:45;;;;;;;10.72;6.17;;;;;;;5.48;73.67;101194.27;1798324;79;21399;-93
2022/12/27 12:50:32;;;;;;;21.85;13.30;;;;;;;5.44;73.73;101203.66;1799301;79;22285;-92
2022/12/27 12:53:27;;;;;;;27.13;19.27;;;;;;;5.43;73.69;101207.98;1798374;78;20978;-92
2022/12/27 12:56:08;;;;;;;26.42;18.27;;;;;;;5.42;73.71;101204.91;1799983;79;21001;-92
2022/12/27 12:58:58;;;;;;;18.62;12.23;;;;;;;5.38;73.58;101191.17;1796390;79;21301;-92
2022/12/27 13:01:44;;;;;;;25.82;18.40;;;;;;;5.32;73.67;101189.55;1719263;81;21062;-92
2022/12/27 13:05:07;;;;;;;43.75;30.37;;;;;;;5.30;73.67;101183.36;1722430;82;21746;-92
2022/12/27 13:08:11;;;;;;;50.23;32.23;;;;;;;5.32;73.80;101183.02;1796982;79;21470;-92
2022/12/27 13:10:49;;;;;;;31.73;20.62;;;;;;;5.37;73.86;101183.28;1797716;78;21433;-92
2022/12/27 13:13:40;;;;;;;25.85;14.75;;;;;;;5.38;73.77;101179.84;1799349;78;21412;-92
2022/12/27 13:16:45;;;;;;;14.30;10.55;;;;;;;5.32;73.71;101167.36;1799060;78;21384;-92
2022/12/27 13:19:44;;;;;;;68.28;39.27;;;;;;;5.28;73.60;101184.10;1804357;78;22023;-92
2022/12/27 13:22:25;;;;;;;36.98;18.73;;;;;;;5.19;73.60;101182.77;1797048;78;21002;-93
2022/12/27 13:25:36;;;;;;;59.03;36.13;;;;;;;5.05;73.49;101192.48;1792346;78;21002;-93
2022/12/27 13:28:17;;;;;;;51.92;34.80;;;;;;;4.92;73.58;101188.72;1802907;78;21400;-93
2022/12/27 13:30:55;;;;;;;24.00;18.62;;;;;;;4.83;73.69;101192.13;1805643;78;21033;-93